createdAt,value
2024-05-09T00:01:54.646Z,5.73
2024-05-09T00:06:57.282Z,5.72
2024-05-09T00:12:00.142Z,5.68
2024-05-09T00:17:03.302Z,5.62
2024-05-09T00:22:06.057Z,5.54
2024-05-09T00:27:11.284Z,5.45
2024-05-09T00:32:14.661Z,5.40
2024-05-09T00:37:17.428Z,5.38
2024-05-09T00:42:20.109Z,5.38
2024-05-09T00:47:24.166Z,5.33
2024-05-09T00:52:28.121Z,5.28
2024-05-09T00:57:30.774Z,5.22
2024-05-09T01:02:33.692Z,5.16
2024-05-09T01:07:37.059Z,5.10
2024-05-09T01:12:39.709Z,5.09
2024-05-09T01:17:42.678Z,5.10
2024-05-09T01:22:45.472Z,5.09
2024-05-09T01:27:48.130Z,5.03
2024-05-09T01:32:51.056Z,4.96
2024-05-09T01:37:54.228Z,4.91
2024-05-09T01:42:56.965Z,4.90
2024-05-09T01:47:59.978Z,4.93
2024-05-09T01:53:02.958Z,4.93
2024-05-09T01:58:06.080Z,4.89
2024-05-09T02:03:11.573Z,4.85
2024-05-09T02:08:19.455Z,4.81
2024-05-09T02:13:22.495Z,4.80
2024-05-09T02:18:25.187Z,4.76
2024-05-09T02:23:27.989Z,4.70
2024-05-09T02:28:30.840Z,4.65
2024-05-09T02:33:33.898Z,4.65
2024-05-09T02:38:37.297Z,4.68
2024-05-09T02:43:40.298Z,4.67
2024-05-09T02:48:43.464Z,4.62
2024-05-09T02:53:46.226Z,4.59
2024-05-09T02:58:48.975Z,4.60
2024-05-09T03:03:52.327Z,4.59
2024-05-09T03:08:55.194Z,4.58
2024-05-09T03:13:57.945Z,4.57
2024-05-09T03:19:00.792Z,4.56
2024-05-09T03:24:03.592Z,4.56
2024-05-09T03:29:06.239Z,4.54
2024-05-09T03:34:11.103Z,4.55
2024-05-09T03:39:13.866Z,4.61
2024-05-09T03:44:16.547Z,4.78
2024-05-09T03:49:19.292Z,4.96
2024-05-09T03:54:22.388Z,5.13
2024-05-09T03:59:25.042Z,5.24
2024-05-09T04:04:27.838Z,5.39
2024-05-09T04:09:30.470Z,5.55
2024-05-09T04:14:33.655Z,5.74
2024-05-09T04:19:36.523Z,5.94
2024-05-09T04:24:39.253Z,6.12
2024-05-09T04:29:41.860Z,6.44
2024-05-09T04:34:44.594Z,9.49
2024-05-09T04:39:47.213Z,14.02
2024-05-09T04:44:49.851Z,17.79
2024-05-09T04:49:52.541Z,20.78
2024-05-09T04:54:56.898Z,22.95
2024-05-09T05:00:02.999Z,24.25
2024-05-09T05:05:06.991Z,22.25
2024-05-09T05:10:14.864Z,19.73
2024-05-09T05:15:23.788Z,17.86
2024-05-09T05:20:32.861Z,16.52
2024-05-09T05:25:37.868Z,15.61
2024-05-09T05:30:41.468Z,14.95
2024-05-09T05:35:45.257Z,14.49
2024-05-09T05:40:48.115Z,14.16
2024-05-09T05:45:51.151Z,13.88
2024-05-09T05:50:53.813Z,13.74
2024-05-09T05:55:56.665Z,13.82
2024-05-09T06:00:59.403Z,13.93
2024-05-09T06:06:04.170Z,14.09
2024-05-09T06:11:07.781Z,14.17
2024-05-09T06:16:11.608Z,14.23
2024-05-09T06:21:17.733Z,14.21
2024-05-09T06:26:21.085Z,14.29
2024-05-09T06:31:26.684Z,15.85
2024-05-09T06:36:30.019Z,20.19
2024-05-09T06:41:38.432Z,23.53
2024-05-09T06:46:42.008Z,25.82
2024-05-09T06:51:44.970Z,27.58
2024-05-09T06:56:49.709Z,29.44
2024-05-09T07:01:52.714Z,30.32
2024-05-09T07:06:59.012Z,30.65
2024-05-09T07:12:02.211Z,30.99
2024-05-09T07:17:05.467Z,31.44
2024-05-09T07:22:09.702Z,31.28
2024-05-09T07:27:13.149Z,28.73
2024-05-09T07:32:16.515Z,27.99
2024-05-09T07:37:19.342Z,28.70
2024-05-09T07:42:24.787Z,28.95
2024-05-09T07:53:33.083Z,28.74
2024-05-09T07:57:56.615Z,28.92
2024-05-09T08:02:59.521Z,29.00
2024-05-09T08:08:02.670Z,29.05
2024-05-09T08:13:05.645Z,28.94
2024-05-09T08:18:09.924Z,29.07
2024-05-09T08:23:12.862Z,28.97
2024-05-09T08:28:16.824Z,28.41
2024-05-09T08:33:19.684Z,27.85
2024-05-09T08:38:22.969Z,27.40
2024-05-09T08:43:29.069Z,27.04
2024-05-09T08:48:34.503Z,26.73
2024-05-09T08:53:37.646Z,26.44
2024-05-09T08:58:41.936Z,26.19
2024-05-09T09:03:44.988Z,25.73
2024-05-09T09:08:48.755Z,25.21
2024-05-09T09:13:51.485Z,24.89
2024-05-09T09:18:57.735Z,24.63
2024-05-09T09:24:01.297Z,23.88
2024-05-09T09:29:04.344Z,22.88
2024-05-09T09:34:09.539Z,22.36
2024-05-09T09:39:16.598Z,21.81
2024-05-09T09:44:23.565Z,21.34
2024-05-09T09:49:27.826Z,20.91
2024-05-09T09:54:30.831Z,20.31
2024-05-09T09:59:35.741Z,20.01
2024-05-09T10:04:38.599Z,19.72
2024-05-09T10:09:42.416Z,19.53
2024-05-09T10:14:45.820Z,19.39
2024-05-09T10:19:48.843Z,19.28
2024-05-09T10:24:53.400Z,19.06
2024-05-09T10:29:58.286Z,19.05
2024-05-09T10:35:05.430Z,18.85
2024-05-09T10:40:14.241Z,18.72
2024-05-09T10:45:26.289Z,18.75
2024-05-09T10:50:34.380Z,18.75
2024-05-09T10:55:37.494Z,18.69
2024-05-09T11:00:47.924Z,18.68
2024-05-09T11:05:56.039Z,18.68
2024-05-09T11:11:00.062Z,18.46
2024-05-09T11:16:04.680Z,18.25
2024-05-09T11:21:13.975Z,18.12
2024-05-09T11:26:19.335Z,17.98
2024-05-09T11:31:22.376Z,17.89
2024-05-09T11:36:26.143Z,17.88
2024-05-09T11:41:30.990Z,17.77
2024-05-09T11:46:33.864Z,17.67
2024-05-09T11:51:36.780Z,17.79
2024-05-09T11:56:39.509Z,17.96
2024-05-09T12:01:42.272Z,18.11
2024-05-09T12:06:46.073Z,18.14
2024-05-09T12:11:48.962Z,18.26
2024-05-09T12:16:51.725Z,18.34
2024-05-09T12:21:54.495Z,18.28
2024-05-09T12:26:57.749Z,18.31
2024-05-09T12:32:00.466Z,18.41
2024-05-09T12:37:04.693Z,18.47
2024-05-09T12:42:09.782Z,18.42
2024-05-09T12:47:13.739Z,18.46
2024-05-09T12:52:16.755Z,18.54
2024-05-09T12:57:20.003Z,18.62
2024-05-09T13:02:22.992Z,18.64
2024-05-09T13:07:25.865Z,18.69
2024-05-09T13:12:28.575Z,18.72
2024-05-09T13:17:31.659Z,18.68
2024-05-09T13:22:34.960Z,18.60
2024-05-09T13:27:39.757Z,18.58
2024-05-09T13:32:42.814Z,18.55
2024-05-09T13:37:46.246Z,18.55
2024-05-09T13:42:49.013Z,18.55
2024-05-09T13:47:52.059Z,18.50
2024-05-09T13:52:55.927Z,18.48
2024-05-09T13:57:58.785Z,18.45
2024-05-09T14:03:04.175Z,18.48
2024-05-09T14:08:08.793Z,18.46
2024-05-09T14:13:11.926Z,18.37
2024-05-09T14:18:15.597Z,18.32
2024-05-09T14:23:18.828Z,18.26
2024-05-09T14:28:24.767Z,18.27
2024-05-09T14:33:27.549Z,18.33
2024-05-09T14:38:30.480Z,18.37
2024-05-09T14:43:36.549Z,18.41
2024-05-09T14:48:42.589Z,18.43
2024-05-09T14:53:45.681Z,18.40
2024-05-09T14:58:48.621Z,18.34
2024-05-09T15:03:52.272Z,18.28
2024-05-09T15:08:57.475Z,18.25
2024-05-09T15:14:00.133Z,18.27
2024-05-09T15:19:04.817Z,18.33
2024-05-09T15:24:07.530Z,18.44
2024-05-09T15:29:10.435Z,18.49
2024-05-09T15:34:13.171Z,18.96
2024-05-09T15:39:15.879Z,18.83
2024-05-09T15:44:19.928Z,18.41
2024-05-09T15:49:22.905Z,18.14
2024-05-09T15:54:27.713Z,17.98
2024-05-09T15:59:30.444Z,17.90
2024-05-09T16:04:33.312Z,17.81
2024-05-09T16:09:36.279Z,17.72
2024-05-09T16:14:39.419Z,17.61
2024-05-09T16:19:43.623Z,17.56
2024-05-09T16:24:46.352Z,17.51
2024-05-09T16:29:49.052Z,17.42
2024-05-09T16:34:52.407Z,17.29
2024-05-09T16:39:55.193Z,17.18
2024-05-09T16:44:58.292Z,17.07
2024-05-09T16:50:00.893Z,16.95
2024-05-09T16:55:04.168Z,16.84
2024-05-09T17:00:14.863Z,16.74
2024-05-09T17:05:24.793Z,16.66
2024-05-09T17:10:32.802Z,16.58
2024-05-09T17:15:40.270Z,16.51
2024-05-09T17:20:43.087Z,16.41
2024-05-09T17:25:48.094Z,16.29
2024-05-09T17:30:51.210Z,16.16
2024-05-09T17:35:53.996Z,16.03
2024-05-09T17:40:58.178Z,15.87
2024-05-09T17:46:01.185Z,15.70
2024-05-09T17:51:04.224Z,15.52
2024-05-09T17:56:09.321Z,15.34
2024-05-09T18:01:12.558Z,15.17
2024-05-09T18:06:16.807Z,14.99
2024-05-09T18:11:19.756Z,14.83
2024-05-09T18:16:23.283Z,14.66
2024-05-09T18:21:27.212Z,14.50
2024-05-09T18:26:40.857Z,14.31
2024-05-09T18:31:43.635Z,14.15
2024-05-09T18:36:46.646Z,14.00
2024-05-09T18:41:49.443Z,13.86
2024-05-09T18:46:52.202Z,13.72
2024-05-09T18:51:54.905Z,13.58
2024-05-09T18:57:00.778Z,13.46
2024-05-09T19:02:04.234Z,13.33
2024-05-09T19:07:09.453Z,13.21
2024-05-09T19:12:14.622Z,13.09
2024-05-09T19:17:25.003Z,12.99
2024-05-09T19:22:28.506Z,12.92
2024-05-09T19:27:31.586Z,12.88
2024-05-09T19:32:34.435Z,12.81
2024-05-09T19:37:41.443Z,12.73
2024-05-09T19:42:45.578Z,12.62
2024-05-09T19:47:48.529Z,12.51
2024-05-09T19:52:51.933Z,12.43
2024-05-09T19:57:54.670Z,12.36
2024-05-09T20:02:57.481Z,12.35
2024-05-09T20:08:01.232Z,12.34
2024-05-09T20:13:06.987Z,12.30
2024-05-09T20:18:10.898Z,12.23
2024-05-09T20:23:14.051Z,12.14
2024-05-09T20:28:20.974Z,12.06
2024-05-09T20:33:23.774Z,11.98
2024-05-09T20:38:26.550Z,11.90
2024-05-09T20:43:29.429Z,11.83
2024-05-09T20:48:34.276Z,11.76
2024-05-09T20:53:37.484Z,11.72
2024-05-09T20:58:42.503Z,11.69
2024-05-09T21:03:45.294Z,11.65
2024-05-09T21:08:49.521Z,11.60
2024-05-09T21:13:52.721Z,11.53
2024-05-09T21:18:55.399Z,11.47
2024-05-09T21:23:59.517Z,11.44
2024-05-09T21:29:02.348Z,11.42
2024-05-09T21:34:05.174Z,11.43
2024-05-09T21:39:10.318Z,11.44
2024-05-09T21:44:12.984Z,11.44
2024-05-09T21:49:17.297Z,11.42
2024-05-09T21:54:20.177Z,11.38
2024-05-09T21:59:22.834Z,11.32
2024-05-09T22:04:25.670Z,11.27
2024-05-09T22:09:28.431Z,11.25
2024-05-09T22:14:31.123Z,11.26
2024-05-09T22:19:33.945Z,11.27
2024-05-09T22:24:36.984Z,11.29
2024-05-09T22:29:39.743Z,11.29
2024-05-09T22:34:42.496Z,11.25
2024-05-09T22:39:45.487Z,11.16
2024-05-09T22:44:48.180Z,11.05
2024-05-09T22:49:50.874Z,10.92
2024-05-09T22:54:53.523Z,10.80
2024-05-09T22:59:56.251Z,10.65
2024-05-09T23:04:59.036Z,10.52
2024-05-09T23:10:01.923Z,10.41
2024-05-09T23:15:06.088Z,10.31
2024-05-09T23:20:11.590Z,10.21
2024-05-09T23:25:14.753Z,10.13
2024-05-09T23:30:28.406Z,10.07
2024-05-09T23:35:37.162Z,10.03
2024-05-09T23:40:41.615Z,10.02
2024-05-09T23:45:45.619Z,10.02
2024-05-09T23:50:49.670Z,10.04
2024-05-09T23:55:52.347Z,10.10
